sensor_id;sensor_type;location;lat;lon;timestamp;P1;durP1;ratioP1;P2;durP2;ratioP2
10557;SDS011;5327;47.238;-2.304;2022-09-09T00:00:14;19.13;;;4.97;;
10557;SDS011;5327;47.238;-2.304;2022-09-09T00:02:41;24.00;;;6.77;;
10557;SDS011;5327;47.238;-2.304;2022-09-09T00:05:23;24.90;;;5.43;;
10557;SDS011;5327;47.238;-2.304;2022-09-09T00:07:52;26.27;;;4.87;;
10557;SDS011;5327;47.238;-2.304;2022-09-09T00:15:24;13.80;;;4.20;;
10557;SDS011;5327;47.238;-2.304;2022-09-09T00:18:07;20.53;;;5.07;;
10557;SDS011;5327;47.238;-2.304;2022-09-09T00:20:40;17.43;;;5.17;;
10557;SDS011;5327;47.238;-2.304;2022-09-09T00:23:30;22.33;;;5.63;;
10557;SDS011;5327;47.238;-2.304;2022-09-09T00:28:26;29.20;;;5.80;;
10557;SDS011;5327;47.238;-2.304;2022-09-09T00:30:55;21.83;;;6.13;;
10557;SDS011;5327;47.238;-2.304;2022-09-09T00:33:23;29.77;;;6.50;;
10557;SDS011;5327;47.238;-2.304;2022-09-09T00:35:50;30.77;;;6.67;;
10557;SDS011;5327;47.238;-2.304;2022-09-09T00:41:02;18.07;;;5.60;;
10557;SDS011;5327;47.238;-2.304;2022-09-09T00:43:35;22.67;;;5.97;;
10557;SDS011;5327;47.238;-2.304;2022-09-09T00:56:26;19.10;;;4.90;;
10557;SDS011;5327;47.238;-2.304;2022-09-09T01:01:30;31.43;;;5.90;;
10557;SDS011;5327;47.238;-2.304;2022-09-09T01:03:56;15.97;;;5.57;;
10557;SDS011;5327;47.238;-2.304;2022-09-09T01:06:35;26.37;;;6.13;;
10557;SDS011;5327;47.238;-2.304;2022-09-09T01:11:51;24.30;;;6.57;;
10557;SDS011;5327;47.238;-2.304;2022-09-09T01:17:05;28.93;;;6.20;;
10557;SDS011;5327;47.238;-2.304;2022-09-09T01:22:06;21.80;;;6.00;;
10557;SDS011;5327;47.238;-2.304;2022-09-09T01:24:37;32.47;;;6.67;;
10557;SDS011;5327;47.238;-2.304;2022-09-09T01:27:05;25.17;;;5.43;;
10557;SDS011;5327;47.238;-2.304;2022-09-09T01:29:31;28.30;;;7.17;;
10557;SDS011;5327;47.238;-2.304;2022-09-09T01:31:59;21.00;;;6.10;;
10557;SDS011;5327;47.238;-2.304;2022-09-09T01:34:26;22.97;;;6.00;;
10557;SDS011;5327;47.238;-2.304;2022-09-09T01:37:05;27.47;;;6.47;;
10557;SDS011;5327;47.238;-2.304;2022-09-09T01:39:34;23.03;;;7.00;;
10557;SDS011;5327;47.238;-2.304;2022-09-09T01:42:01;24.60;;;5.60;;
10557;SDS011;5327;47.238;-2.304;2022-09-09T01:44:28;22.40;;;5.90;;
10557;SDS011;5327;47.238;-2.304;2022-09-09T01:46:54;17.67;;;5.40;;
10557;SDS011;5327;47.238;-2.304;2022-09-09T01:49:20;28.17;;;6.47;;
10557;SDS011;5327;47.238;-2.304;2022-09-09T01:51:48;28.37;;;5.30;;
10557;SDS011;5327;47.238;-2.304;2022-09-09T01:54:15;20.60;;;5.80;;
10557;SDS011;5327;47.238;-2.304;2022-09-09T01:56:58;28.57;;;5.60;;
10557;SDS011;5327;47.238;-2.304;2022-09-09T01:59:40;23.50;;;6.40;;
10557;SDS011;5327;47.238;-2.304;2022-09-09T02:02:13;26.63;;;6.23;;
10557;SDS011;5327;47.238;-2.304;2022-09-09T02:04:48;23.53;;;7.10;;
10557;SDS011;5327;47.238;-2.304;2022-09-09T02:09:43;25.07;;;6.60;;
10557;SDS011;5327;47.238;-2.304;2022-09-09T02:12:13;19.80;;;5.10;;
10557;SDS011;5327;47.238;-2.304;2022-09-09T02:14:41;17.87;;;5.43;;
10557;SDS011;5327;47.238;-2.304;2022-09-09T02:17:10;25.13;;;6.03;;
10557;SDS011;5327;47.238;-2.304;2022-09-09T02:19:48;29.13;;;6.10;;
10557;SDS011;5327;47.238;-2.304;2022-09-09T02:22:18;19.30;;;5.83;;
10557;SDS011;5327;47.238;-2.304;2022-09-09T02:24:45;20.97;;;5.23;;
10557;SDS011;5327;47.238;-2.304;2022-09-09T02:27:12;14.73;;;4.27;;
10557;SDS011;5327;47.238;-2.304;2022-09-09T02:29:40;15.70;;;4.27;;
10557;SDS011;5327;47.238;-2.304;2022-09-09T02:32:08;21.53;;;5.53;;
10557;SDS011;5327;47.238;-2.304;2022-09-09T02:34:36;26.50;;;5.23;;
10557;SDS011;5327;47.238;-2.304;2022-09-09T02:37:06;25.23;;;4.43;;
10557;SDS011;5327;47.238;-2.304;2022-09-09T02:39:33;20.53;;;4.27;;
10557;SDS011;5327;47.238;-2.304;2022-09-09T02:41:59;23.60;;;6.47;;
10557;SDS011;5327;47.238;-2.304;2022-09-09T02:44:25;16.27;;;3.63;;
10557;SDS011;5327;47.238;-2.304;2022-09-09T02:49:19;27.37;;;5.00;;
10557;SDS011;5327;47.238;-2.304;2022-09-09T02:56:48;12.90;;;2.87;;
10557;SDS011;5327;47.238;-2.304;2022-09-09T02:59:16;10.20;;;2.90;;
10557;SDS011;5327;47.238;-2.304;2022-09-09T03:01:43;21.57;;;4.20;;
10557;SDS011;5327;47.238;-2.304;2022-09-09T03:04:10;13.63;;;2.70;;
10557;SDS011;5327;47.238;-2.304;2022-09-09T03:06:36;19.80;;;4.10;;
10557;SDS011;5327;47.238;-2.304;2022-09-09T03:09:02;25.87;;;5.00;;
10557;SDS011;5327;47.238;-2.304;2022-09-09T03:11:28;9.97;;;3.90;;
10557;SDS011;5327;47.238;-2.304;2022-09-09T03:13:55;19.30;;;4.47;;
10557;SDS011;5327;47.238;-2.304;2022-09-09T03:16:24;16.17;;;3.93;;
10557;SDS011;5327;47.238;-2.304;2022-09-09T03:18:50;7.97;;;3.20;;
10557;SDS011;5327;47.238;-2.304;2022-09-09T03:21:17;24.63;;;6.20;;
10557;SDS011;5327;47.238;-2.304;2022-09-09T03:23:43;15.93;;;3.87;;
10557;SDS011;5327;47.238;-2.304;2022-09-09T03:26:10;16.67;;;4.20;;
10557;SDS011;5327;47.238;-2.304;2022-09-09T03:28:36;27.47;;;6.00;;
10557;SDS011;5327;47.238;-2.304;2022-09-09T03:31:03;23.50;;;5.87;;
10557;SDS011;5327;47.238;-2.304;2022-09-09T03:33:29;16.17;;;5.20;;
10557;SDS011;5327;47.238;-2.304;2022-09-09T03:35:56;31.17;;;5.63;;
10557;SDS011;5327;47.238;-2.304;2022-09-09T03:38:25;30.80;;;5.47;;
10557;SDS011;5327;47.238;-2.304;2022-09-09T03:40:53;28.20;;;4.97;;
10557;SDS011;5327;47.238;-2.304;2022-09-09T03:43:21;27.60;;;6.33;;
10557;SDS011;5327;47.238;-2.304;2022-09-09T03:45:47;24.90;;;4.77;;
10557;SDS011;5327;47.238;-2.304;2022-09-09T03:48:13;32.83;;;7.13;;
10557;SDS011;5327;47.238;-2.304;2022-09-09T03:50:43;20.53;;;5.50;;
10557;SDS011;5327;47.238;-2.304;2022-09-09T03:53:09;18.60;;;6.90;;
10557;SDS011;5327;47.238;-2.304;2022-09-09T03:55:35;19.83;;;6.33;;
10557;SDS011;5327;47.238;-2.304;2022-09-09T03:58:01;17.60;;;6.03;;
10557;SDS011;5327;47.238;-2.304;2022-09-09T04:00:27;26.60;;;5.90;;
10557;SDS011;5327;47.238;-2.304;2022-09-09T04:02:55;18.03;;;6.00;;
10557;SDS011;5327;47.238;-2.304;2022-09-09T04:05:22;27.93;;;6.30;;
10557;SDS011;5327;47.238;-2.304;2022-09-09T04:07:48;19.87;;;5.73;;
10557;SDS011;5327;47.238;-2.304;2022-09-09T04:10:16;19.43;;;5.77;;
10557;SDS011;5327;47.238;-2.304;2022-09-09T04:12:42;21.07;;;5.10;;
10557;SDS011;5327;47.238;-2.304;2022-09-09T04:15:09;15.87;;;5.93;;
10557;SDS011;5327;47.238;-2.304;2022-09-09T04:17:35;22.63;;;5.70;;
10557;SDS011;5327;47.238;-2.304;2022-09-09T04:20:02;27.13;;;6.50;;
10557;SDS011;5327;47.238;-2.304;2022-09-09T04:22:28;29.90;;;8.03;;
10557;SDS011;5327;47.238;-2.304;2022-09-09T04:24:54;19.20;;;6.17;;
10557;SDS011;5327;47.238;-2.304;2022-09-09T04:27:20;28.90;;;6.77;;
10557;SDS011;5327;47.238;-2.304;2022-09-09T04:29:46;40.27;;;8.83;;
10557;SDS011;5327;47.238;-2.304;2022-09-09T04:32:12;30.67;;;6.30;;
10557;SDS011;5327;47.238;-2.304;2022-09-09T04:34:38;41.03;;;6.63;;
10557;SDS011;5327;47.238;-2.304;2022-09-09T04:37:06;47.67;;;7.77;;
10557;SDS011;5327;47.238;-2.304;2022-09-09T04:39:32;41.93;;;6.60;;
10557;SDS011;5327;47.238;-2.304;2022-09-09T04:41:58;23.67;;;6.43;;
10557;SDS011;5327;47.238;-2.304;2022-09-09T04:44:24;23.17;;;6.00;;
10557;SDS011;5327;47.238;-2.304;2022-09-09T04:46:50;19.87;;;5.60;;
10557;SDS011;5327;47.238;-2.304;2022-09-09T04:49:17;18.00;;;4.60;;
10557;SDS011;5327;47.238;-2.304;2022-09-09T04:51:43;29.40;;;7.17;;
10557;SDS011;5327;47.238;-2.304;2022-09-09T04:54:09;27.53;;;5.67;;
10557;SDS011;5327;47.238;-2.304;2022-09-09T04:56:36;28.13;;;6.83;;
10557;SDS011;5327;47.238;-2.304;2022-09-09T04:59:02;19.50;;;4.60;;
10557;SDS011;5327;47.238;-2.304;2022-09-09T05:01:29;25.83;;;5.77;;
10557;SDS011;5327;47.238;-2.304;2022-09-09T05:03:55;14.90;;;4.70;;
10557;SDS011;5327;47.238;-2.304;2022-09-09T05:06:21;21.03;;;5.80;;
10557;SDS011;5327;47.238;-2.304;2022-09-09T05:08:47;18.40;;;3.70;;
10557;SDS011;5327;47.238;-2.304;2022-09-09T05:11:20;14.83;;;4.50;;
10557;SDS011;5327;47.238;-2.304;2022-09-09T05:13:48;6.70;;;2.30;;
10557;SDS011;5327;47.238;-2.304;2022-09-09T05:16:15;11.70;;;3.27;;
10557;SDS011;5327;47.238;-2.304;2022-09-09T05:18:42;6.60;;;1.83;;
10557;SDS011;5327;47.238;-2.304;2022-09-09T05:21:08;13.70;;;4.93;;
10557;SDS011;5327;47.238;-2.304;2022-09-09T05:23:35;13.30;;;3.30;;
10557;SDS011;5327;47.238;-2.304;2022-09-09T05:26:01;10.60;;;3.37;;
10557;SDS011;5327;47.238;-2.304;2022-09-09T05:28:28;19.57;;;4.97;;
10557;SDS011;5327;47.238;-2.304;2022-09-09T05:31:05;23.63;;;3.80;;
10557;SDS011;5327;47.238;-2.304;2022-09-09T05:33:37;25.20;;;5.27;;
10557;SDS011;5327;47.238;-2.304;2022-09-09T05:36:15;17.67;;;4.93;;
10557;SDS011;5327;47.238;-2.304;2022-09-09T05:38:42;13.20;;;3.60;;
10557;SDS011;5327;47.238;-2.304;2022-09-09T05:41:08;15.87;;;4.40;;
10557;SDS011;5327;47.238;-2.304;2022-09-09T05:43:36;13.13;;;3.37;;
10557;SDS011;5327;47.238;-2.304;2022-09-09T05:48:29;24.30;;;5.30;;
10557;SDS011;5327;47.238;-2.304;2022-09-09T05:50:56;21.73;;;4.57;;
10557;SDS011;5327;47.238;-2.304;2022-09-09T05:53:22;19.83;;;4.83;;
10557;SDS011;5327;47.238;-2.304;2022-09-09T05:55:48;33.10;;;5.43;;
10557;SDS011;5327;47.238;-2.304;2022-09-09T05:58:15;19.47;;;4.33;;
10557;SDS011;5327;47.238;-2.304;2022-09-09T06:00:42;20.77;;;5.20;;
10557;SDS011;5327;47.238;-2.304;2022-09-09T06:03:11;15.43;;;4.97;;
10557;SDS011;5327;47.238;-2.304;2022-09-09T06:05:38;24.37;;;4.83;;
10557;SDS011;5327;47.238;-2.304;2022-09-09T06:08:04;20.87;;;5.10;;
10557;SDS011;5327;47.238;-2.304;2022-09-09T06:10:30;25.90;;;5.57;;
10557;SDS011;5327;47.238;-2.304;2022-09-09T06:12:56;20.70;;;5.53;;
10557;SDS011;5327;47.238;-2.304;2022-09-09T06:15:22;22.50;;;4.23;;
10557;SDS011;5327;47.238;-2.304;2022-09-09T06:17:53;23.83;;;4.80;;
10557;SDS011;5327;47.238;-2.304;2022-09-09T06:20:20;21.10;;;5.03;;
10557;SDS011;5327;47.238;-2.304;2022-09-09T06:22:47;19.17;;;4.10;;
10557;SDS011;5327;47.238;-2.304;2022-09-09T06:25:13;17.40;;;4.50;;
10557;SDS011;5327;47.238;-2.304;2022-09-09T06:27:39;20.30;;;4.33;;
10557;SDS011;5327;47.238;-2.304;2022-09-09T06:30:07;10.83;;;2.97;;
10557;SDS011;5327;47.238;-2.304;2022-09-09T06:32:33;28.10;;;4.30;;
10557;SDS011;5327;47.238;-2.304;2022-09-09T06:35:00;18.33;;;4.37;;
10557;SDS011;5327;47.238;-2.304;2022-09-09T06:37:26;20.27;;;3.60;;
10557;SDS011;5327;47.238;-2.304;2022-09-09T06:39:52;10.70;;;3.13;;
10557;SDS011;5327;47.238;-2.304;2022-09-09T06:42:19;14.53;;;4.77;;
10557;SDS011;5327;47.238;-2.304;2022-09-09T06:44:45;12.40;;;4.57;;
10557;SDS011;5327;47.238;-2.304;2022-09-09T06:47:12;16.00;;;3.97;;
10557;SDS011;5327;47.238;-2.304;2022-09-09T06:49:38;11.77;;;3.80;;
10557;SDS011;5327;47.238;-2.304;2022-09-09T06:52:04;17.90;;;3.27;;
10557;SDS011;5327;47.238;-2.304;2022-09-09T06:54:30;21.60;;;4.60;;
10557;SDS011;5327;47.238;-2.304;2022-09-09T06:56:56;18.00;;;4.67;;
10557;SDS011;5327;47.238;-2.304;2022-09-09T06:59:22;17.47;;;5.13;;
10557;SDS011;5327;47.238;-2.304;2022-09-09T07:01:48;14.17;;;4.17;;
10557;SDS011;5327;47.238;-2.304;2022-09-09T07:04:16;24.20;;;5.23;;
10557;SDS011;5327;47.238;-2.304;2022-09-09T07:06:44;22.30;;;4.37;;
10557;SDS011;5327;47.238;-2.304;2022-09-09T07:09:11;22.97;;;4.20;;
10557;SDS011;5327;47.238;-2.304;2022-09-09T07:11:39;20.97;;;5.10;;
10557;SDS011;5327;47.238;-2.304;2022-09-09T07:14:06;15.70;;;4.83;;
10557;SDS011;5327;47.238;-2.304;2022-09-09T07:16:33;21.73;;;4.40;;
10557;SDS011;5327;47.238;-2.304;2022-09-09T07:19:02;12.67;;;3.57;;
10557;SDS011;5327;47.238;-2.304;2022-09-09T07:21:28;17.20;;;4.53;;
10557;SDS011;5327;47.238;-2.304;2022-09-09T07:23:54;17.10;;;3.90;;
10557;SDS011;5327;47.238;-2.304;2022-09-09T07:26:22;19.43;;;4.40;;
10557;SDS011;5327;47.238;-2.304;2022-09-09T07:28:48;18.63;;;3.87;;
10557;SDS011;5327;47.238;-2.304;2022-09-09T07:31:19;15.90;;;3.57;;
10557;SDS011;5327;47.238;-2.304;2022-09-09T07:33:45;12.83;;;3.40;;
10557;SDS011;5327;47.238;-2.304;2022-09-09T07:36:13;14.53;;;5.07;;
10557;SDS011;5327;47.238;-2.304;2022-09-09T07:38:40;15.00;;;4.33;;
10557;SDS011;5327;47.238;-2.304;2022-09-09T07:41:09;14.77;;;3.77;;
10557;SDS011;5327;47.238;-2.304;2022-09-09T07:43:37;14.13;;;4.50;;
10557;SDS011;5327;47.238;-2.304;2022-09-09T07:46:04;11.63;;;3.27;;
10557;SDS011;5327;47.238;-2.304;2022-09-09T07:48:31;16.53;;;3.60;;
10557;SDS011;5327;47.238;-2.304;2022-09-09T07:51:08;18.17;;;3.90;;
10557;SDS011;5327;47.238;-2.304;2022-09-09T07:53:35;12.97;;;3.80;;
10557;SDS011;5327;47.238;-2.304;2022-09-09T07:56:02;10.83;;;3.70;;
10557;SDS011;5327;47.238;-2.304;2022-09-09T07:58:28;15.07;;;3.87;;
10557;SDS011;5327;47.238;-2.304;2022-09-09T08:00:54;8.70;;;3.10;;
10557;SDS011;5327;47.238;-2.304;2022-09-09T08:03:20;12.10;;;3.20;;
10557;SDS011;5327;47.238;-2.304;2022-09-09T08:05:47;13.87;;;3.93;;
10557;SDS011;5327;47.238;-2.304;2022-09-09T08:08:13;10.20;;;3.20;;
10557;SDS011;5327;47.238;-2.304;2022-09-09T08:10:40;16.30;;;3.57;;
10557;SDS011;5327;47.238;-2.304;2022-09-09T08:13:06;12.10;;;3.70;;
10557;SDS011;5327;47.238;-2.304;2022-09-09T08:15:32;22.20;;;5.80;;
10557;SDS011;5327;47.238;-2.304;2022-09-09T08:17:59;15.03;;;3.87;;
10557;SDS011;5327;47.238;-2.304;2022-09-09T08:20:25;18.10;;;4.60;;
10557;SDS011;5327;47.238;-2.304;2022-09-09T08:22:52;11.00;;;2.70;;
10557;SDS011;5327;47.238;-2.304;2022-09-09T08:25:18;14.30;;;3.60;;
10557;SDS011;5327;47.238;-2.304;2022-09-09T08:27:44;13.43;;;3.20;;
10557;SDS011;5327;47.238;-2.304;2022-09-09T08:30:10;16.20;;;4.00;;
10557;SDS011;5327;47.238;-2.304;2022-09-09T08:32:36;21.67;;;4.73;;
10557;SDS011;5327;47.238;-2.304;2022-09-09T08:35:02;13.90;;;3.20;;
10557;SDS011;5327;47.238;-2.304;2022-09-09T08:37:28;13.83;;;3.43;;
10557;SDS011;5327;47.238;-2.304;2022-09-09T08:39:54;14.50;;;3.60;;
10557;SDS011;5327;47.238;-2.304;2022-09-09T08:45:20;9.87;;;2.93;;
10557;SDS011;5327;47.238;-2.304;2022-09-09T08:50:32;16.00;;;3.83;;
10557;SDS011;5327;47.238;-2.304;2022-09-09T08:53:11;11.93;;;3.20;;
10557;SDS011;5327;47.238;-2.304;2022-09-09T08:58:17;10.67;;;3.63;;
10557;SDS011;5327;47.238;-2.304;2022-09-09T09:00:49;11.87;;;3.27;;
10557;SDS011;5327;47.238;-2.304;2022-09-09T09:03:25;7.20;;;2.83;;
10557;SDS011;5327;47.238;-2.304;2022-09-09T09:06:08;17.23;;;3.80;;
10557;SDS011;5327;47.238;-2.304;2022-09-09T09:08:38;12.67;;;3.60;;
10557;SDS011;5327;47.238;-2.304;2022-09-09T09:11:06;8.07;;;2.90;;
10557;SDS011;5327;47.238;-2.304;2022-09-09T09:17:11;12.10;;;3.17;;
10557;SDS011;5327;47.238;-2.304;2022-09-09T09:19:08;10.57;;;3.40;;
10557;SDS011;5327;47.238;-2.304;2022-09-09T09:24:03;11.37;;;3.57;;
10557;SDS011;5327;47.238;-2.304;2022-09-09T09:26:33;10.27;;;2.63;;
10557;SDS011;5327;47.238;-2.304;2022-09-09T09:29:01;10.80;;;3.20;;
10557;SDS011;5327;47.238;-2.304;2022-09-09T09:31:28;11.90;;;2.87;;
10557;SDS011;5327;47.238;-2.304;2022-09-09T09:33:54;10.43;;;3.27;;
10557;SDS011;5327;47.238;-2.304;2022-09-09T09:36:24;11.27;;;3.10;;
10557;SDS011;5327;47.238;-2.304;2022-09-09T09:38:55;15.00;;;3.13;;
10557;SDS011;5327;47.238;-2.304;2022-09-09T09:44:00;11.60;;;3.27;;
10557;SDS011;5327;47.238;-2.304;2022-09-09T09:46:27;11.93;;;3.37;;
10557;SDS011;5327;47.238;-2.304;2022-09-09T09:49:00;16.63;;;3.90;;
10557;SDS011;5327;47.238;-2.304;2022-09-09T09:51:26;13.30;;;3.30;;
10557;SDS011;5327;47.238;-2.304;2022-09-09T09:53:53;12.27;;;3.33;;
10557;SDS011;5327;47.238;-2.304;2022-09-09T09:56:27;9.97;;;3.40;;
10557;SDS011;5327;47.238;-2.304;2022-09-09T09:58:54;12.90;;;3.70;;
10557;SDS011;5327;47.238;-2.304;2022-09-09T10:03:50;15.50;;;3.20;;
10557;SDS011;5327;47.238;-2.304;2022-09-09T10:06:16;15.50;;;5.23;;
10557;SDS011;5327;47.238;-2.304;2022-09-09T10:08:46;11.80;;;3.60;;
10557;SDS011;5327;47.238;-2.304;2022-09-09T10:18:51;11.63;;;3.13;;
10557;SDS011;5327;47.238;-2.304;2022-09-09T10:21:23;10.50;;;3.10;;
10557;SDS011;5327;47.238;-2.304;2022-09-09T10:36:44;10.33;;;3.97;;
10557;SDS011;5327;47.238;-2.304;2022-09-09T10:39:35;15.67;;;3.47;;
10557;SDS011;5327;47.238;-2.304;2022-09-09T10:49:43;11.90;;;3.30;;
10557;SDS011;5327;47.238;-2.304;2022-09-09T10:52:28;10.03;;;3.20;;
10557;SDS011;5327;47.238;-2.304;2022-09-09T11:00:06;9.50;;;3.60;;
10557;SDS011;5327;47.238;-2.304;2022-09-09T11:02:33;11.10;;;3.60;;
10557;SDS011;5327;47.238;-2.304;2022-09-09T11:12:53;15.67;;;3.73;;
10557;SDS011;5327;47.238;-2.304;2022-09-09T11:15:45;11.70;;;3.67;;
10557;SDS011;5327;47.238;-2.304;2022-09-09T11:18:17;13.97;;;3.70;;
10557;SDS011;5327;47.238;-2.304;2022-09-09T11:20:45;12.50;;;3.50;;
10557;SDS011;5327;47.238;-2.304;2022-09-09T11:23:13;14.43;;;3.80;;
10557;SDS011;5327;47.238;-2.304;2022-09-09T11:25:43;14.63;;;3.80;;
10557;SDS011;5327;47.238;-2.304;2022-09-09T11:28:14;10.80;;;3.27;;
10557;SDS011;5327;47.238;-2.304;2022-09-09T11:30:54;18.47;;;4.00;;
10557;SDS011;5327;47.238;-2.304;2022-09-09T11:39:02;18.50;;;3.80;;
10557;SDS011;5327;47.238;-2.304;2022-09-09T11:41:36;14.70;;;4.00;;
10557;SDS011;5327;47.238;-2.304;2022-09-09T11:44:09;21.20;;;3.70;;
10557;SDS011;5327;47.238;-2.304;2022-09-09T11:46:37;25.77;;;4.57;;
10557;SDS011;5327;47.238;-2.304;2022-09-09T11:49:05;16.43;;;4.43;;
10557;SDS011;5327;47.238;-2.304;2022-09-09T11:51:32;25.10;;;8.23;;
10557;SDS011;5327;47.238;-2.304;2022-09-09T11:54:01;17.50;;;3.33;;
10557;SDS011;5327;47.238;-2.304;2022-09-09T11:58:54;13.30;;;3.90;;
10557;SDS011;5327;47.238;-2.304;2022-09-09T12:06:42;22.03;;;5.33;;
10557;SDS011;5327;47.238;-2.304;2022-09-09T12:11:53;17.67;;;4.30;;
10557;SDS011;5327;47.238;-2.304;2022-09-09T12:19:41;15.43;;;4.67;;
10557;SDS011;5327;47.238;-2.304;2022-09-09T12:22:09;15.87;;;4.40;;
10557;SDS011;5327;47.238;-2.304;2022-09-09T12:24:45;17.87;;;3.90;;
10557;SDS011;5327;47.238;-2.304;2022-09-09T12:29:54;19.07;;;4.70;;
10557;SDS011;5327;47.238;-2.304;2022-09-09T12:32:23;18.80;;;3.40;;
10557;SDS011;5327;47.238;-2.304;2022-09-09T12:34:53;20.83;;;4.27;;
10557;SDS011;5327;47.238;-2.304;2022-09-09T12:37:34;15.50;;;3.47;;
10557;SDS011;5327;47.238;-2.304;2022-09-09T12:40:17;14.40;;;3.57;;
10557;SDS011;5327;47.238;-2.304;2022-09-09T12:42:44;23.07;;;6.47;;
10557;SDS011;5327;47.238;-2.304;2022-09-09T12:45:17;16.77;;;4.00;;
10557;SDS011;5327;47.238;-2.304;2022-09-09T12:50:16;24.30;;;4.60;;
10557;SDS011;5327;47.238;-2.304;2022-09-09T12:52:43;21.57;;;3.63;;
10557;SDS011;5327;47.238;-2.304;2022-09-09T12:55:15;16.70;;;4.63;;
10557;SDS011;5327;47.238;-2.304;2022-09-09T12:57:41;19.97;;;4.30;;
10557;SDS011;5327;47.238;-2.304;2022-09-09T13:00:14;16.10;;;4.73;;
10557;SDS011;5327;47.238;-2.304;2022-09-09T13:02:47;14.83;;;4.17;;
10557;SDS011;5327;47.238;-2.304;2022-09-09T13:05:16;16.50;;;5.20;;
10557;SDS011;5327;47.238;-2.304;2022-09-09T13:07:42;14.07;;;3.90;;
10557;SDS011;5327;47.238;-2.304;2022-09-09T13:10:12;17.90;;;4.23;;
10557;SDS011;5327;47.238;-2.304;2022-09-09T13:12:38;17.47;;;5.00;;
10557;SDS011;5327;47.238;-2.304;2022-09-09T13:15:05;14.10;;;4.43;;
10557;SDS011;5327;47.238;-2.304;2022-09-09T13:17:35;17.37;;;3.93;;
10557;SDS011;5327;47.238;-2.304;2022-09-09T13:20:01;16.73;;;4.40;;
10557;SDS011;5327;47.238;-2.304;2022-09-09T13:22:30;20.30;;;4.40;;
10557;SDS011;5327;47.238;-2.304;2022-09-09T13:25:05;15.93;;;3.97;;
10557;SDS011;5327;47.238;-2.304;2022-09-09T13:27:35;16.23;;;3.43;;
10557;SDS011;5327;47.238;-2.304;2022-09-09T13:38:20;20.23;;;5.40;;
10557;SDS011;5327;47.238;-2.304;2022-09-09T13:40:55;20.90;;;4.70;;
10557;SDS011;5327;47.238;-2.304;2022-09-09T13:43:22;19.30;;;3.80;;
10557;SDS011;5327;47.238;-2.304;2022-09-09T13:45:56;15.40;;;3.70;;
10557;SDS011;5327;47.238;-2.304;2022-09-09T13:48:23;22.03;;;4.53;;
10557;SDS011;5327;47.238;-2.304;2022-09-09T13:50:57;18.23;;;4.03;;
10557;SDS011;5327;47.238;-2.304;2022-09-09T13:53:23;21.53;;;4.77;;
10557;SDS011;5327;47.238;-2.304;2022-09-09T13:55:50;18.10;;;4.50;;
10557;SDS011;5327;47.238;-2.304;2022-09-09T13:58:17;22.10;;;4.60;;
10557;SDS011;5327;47.238;-2.304;2022-09-09T14:00:47;16.57;;;4.13;;
10557;SDS011;5327;47.238;-2.304;2022-09-09T14:03:14;23.80;;;4.70;;
10557;SDS011;5327;47.238;-2.304;2022-09-09T14:05:40;15.10;;;4.10;;
10557;SDS011;5327;47.238;-2.304;2022-09-09T14:08:07;15.30;;;4.17;;
10557;SDS011;5327;47.238;-2.304;2022-09-09T14:10:38;23.40;;;4.60;;
10557;SDS011;5327;47.238;-2.304;2022-09-09T14:13:04;19.70;;;3.70;;
10557;SDS011;5327;47.238;-2.304;2022-09-09T14:15:30;15.70;;;3.77;;
10557;SDS011;5327;47.238;-2.304;2022-09-09T14:17:56;17.03;;;3.83;;
10557;SDS011;5327;47.238;-2.304;2022-09-09T14:20:23;19.73;;;4.40;;
10557;SDS011;5327;47.238;-2.304;2022-09-09T14:22:49;19.23;;;4.40;;
10557;SDS011;5327;47.238;-2.304;2022-09-09T14:25:15;18.23;;;4.67;;
10557;SDS011;5327;47.238;-2.304;2022-09-09T14:27:42;18.30;;;4.70;;
10557;SDS011;5327;47.238;-2.304;2022-09-09T14:30:08;11.90;;;3.43;;
10557;SDS011;5327;47.238;-2.304;2022-09-09T14:32:34;18.13;;;5.07;;
10557;SDS011;5327;47.238;-2.304;2022-09-09T14:35:00;21.33;;;5.03;;
10557;SDS011;5327;47.238;-2.304;2022-09-09T14:37:27;23.13;;;4.90;;
10557;SDS011;5327;47.238;-2.304;2022-09-09T14:39:53;26.40;;;5.30;;
10557;SDS011;5327;47.238;-2.304;2022-09-09T14:42:19;18.87;;;4.03;;
10557;SDS011;5327;47.238;-2.304;2022-09-09T14:44:45;18.13;;;4.23;;
10557;SDS011;5327;47.238;-2.304;2022-09-09T14:47:11;14.63;;;4.40;;
10557;SDS011;5327;47.238;-2.304;2022-09-09T14:49:37;19.20;;;4.13;;
10557;SDS011;5327;47.238;-2.304;2022-09-09T14:52:03;27.00;;;5.23;;
10557;SDS011;5327;47.238;-2.304;2022-09-09T14:54:30;16.60;;;4.00;;
10557;SDS011;5327;47.238;-2.304;2022-09-09T14:56:57;21.83;;;4.00;;
10557;SDS011;5327;47.238;-2.304;2022-09-09T14:59:23;24.47;;;4.70;;
10557;SDS011;5327;47.238;-2.304;2022-09-09T15:01:49;17.57;;;4.70;;
10557;SDS011;5327;47.238;-2.304;2022-09-09T15:04:15;15.10;;;4.20;;
10557;SDS011;5327;47.238;-2.304;2022-09-09T15:06:45;20.60;;;5.90;;
10557;SDS011;5327;47.238;-2.304;2022-09-09T15:09:13;17.70;;;3.83;;
10557;SDS011;5327;47.238;-2.304;2022-09-09T15:11:39;15.23;;;4.10;;
10557;SDS011;5327;47.238;-2.304;2022-09-09T15:14:06;23.90;;;4.90;;
10557;SDS011;5327;47.238;-2.304;2022-09-09T15:16:32;18.10;;;4.60;;
10557;SDS011;5327;47.238;-2.304;2022-09-09T15:18:59;18.43;;;3.60;;
10557;SDS011;5327;47.238;-2.304;2022-09-09T15:21:26;24.30;;;5.40;;
10557;SDS011;5327;47.238;-2.304;2022-09-09T15:23:53;20.37;;;5.40;;
10557;SDS011;5327;47.238;-2.304;2022-09-09T15:26:19;22.80;;;5.30;;
10557;SDS011;5327;47.238;-2.304;2022-09-09T15:28:46;25.17;;;4.50;;
10557;SDS011;5327;47.238;-2.304;2022-09-09T15:31:16;21.80;;;4.27;;
10557;SDS011;5327;47.238;-2.304;2022-09-09T15:33:49;18.47;;;4.43;;
10557;SDS011;5327;47.238;-2.304;2022-09-09T15:36:17;26.97;;;4.90;;
10557;SDS011;5327;47.238;-2.304;2022-09-09T15:38:43;13.93;;;3.60;;
10557;SDS011;5327;47.238;-2.304;2022-09-09T15:41:09;21.80;;;4.27;;
10557;SDS011;5327;47.238;-2.304;2022-09-09T15:43:36;15.87;;;3.90;;
10557;SDS011;5327;47.238;-2.304;2022-09-09T15:46:24;12.63;;;3.37;;
10557;SDS011;5327;47.238;-2.304;2022-09-09T15:48:52;18.67;;;4.10;;
10557;SDS011;5327;47.238;-2.304;2022-09-09T15:51:18;17.57;;;3.97;;
10557;SDS011;5327;47.238;-2.304;2022-09-09T15:53:44;17.33;;;4.23;;
10557;SDS011;5327;47.238;-2.304;2022-09-09T15:56:10;21.20;;;4.13;;
10557;SDS011;5327;47.238;-2.304;2022-09-09T15:58:36;32.63;;;5.60;;
10557;SDS011;5327;47.238;-2.304;2022-09-09T16:01:03;17.80;;;4.47;;
10557;SDS011;5327;47.238;-2.304;2022-09-09T16:03:29;21.00;;;4.57;;
10557;SDS011;5327;47.238;-2.304;2022-09-09T16:05:55;25.17;;;4.80;;
10557;SDS011;5327;47.238;-2.304;2022-09-09T16:08:21;25.27;;;5.90;;
10557;SDS011;5327;47.238;-2.304;2022-09-09T16:10:48;18.37;;;4.80;;
10557;SDS011;5327;47.238;-2.304;2022-09-09T16:13:14;24.77;;;5.40;;
10557;SDS011;5327;47.238;-2.304;2022-09-09T16:15:40;33.43;;;6.90;;
10557;SDS011;5327;47.238;-2.304;2022-09-09T16:18:06;34.53;;;6.50;;
10557;SDS011;5327;47.238;-2.304;2022-09-09T16:20:32;32.80;;;9.97;;
10557;SDS011;5327;47.238;-2.304;2022-09-09T16:22:58;31.07;;;8.60;;
10557;SDS011;5327;47.238;-2.304;2022-09-09T16:25:26;24.70;;;5.60;;
10557;SDS011;5327;47.238;-2.304;2022-09-09T16:27:53;36.90;;;9.43;;
10557;SDS011;5327;47.238;-2.304;2022-09-09T16:30:19;34.53;;;10.63;;
10557;SDS011;5327;47.238;-2.304;2022-09-09T16:32:46;25.53;;;5.83;;
10557;SDS011;5327;47.238;-2.304;2022-09-09T16:35:12;28.73;;;7.73;;
10557;SDS011;5327;47.238;-2.304;2022-09-09T16:37:38;24.00;;;5.60;;
10557;SDS011;5327;47.238;-2.304;2022-09-09T16:40:04;36.00;;;8.43;;
10557;SDS011;5327;47.238;-2.304;2022-09-09T16:42:32;37.37;;;8.00;;
10557;SDS011;5327;47.238;-2.304;2022-09-09T16:44:58;26.07;;;6.60;;
10557;SDS011;5327;47.238;-2.304;2022-09-09T16:47:24;19.90;;;5.70;;
10557;SDS011;5327;47.238;-2.304;2022-09-09T16:49:50;32.73;;;5.90;;
10557;SDS011;5327;47.238;-2.304;2022-09-09T16:52:16;23.53;;;6.47;;
10557;SDS011;5327;47.238;-2.304;2022-09-09T16:54:42;25.63;;;7.47;;
10557;SDS011;5327;47.238;-2.304;2022-09-09T16:57:08;21.47;;;6.30;;
10557;SDS011;5327;47.238;-2.304;2022-09-09T16:59:35;26.77;;;6.70;;